sensor_id;sensor_type;location;lat;lon;timestamp;P1;durP1;ratioP1;P2;durP2;ratioP2
25980;SDS011;13772;52.996;9.124;2023-02-28T07:24:06;6.40;;;3.60;;
25980;SDS011;13772;52.996;9.124;2023-02-28T07:26:32;6.22;;;3.53;;
25980;SDS011;13772;52.996;9.124;2023-02-28T07:28:59;6.03;;;3.10;;
25980;SDS011;13772;52.996;9.124;2023-02-28T07:31:24;5.28;;;3.20;;
25980;SDS011;13772;52.996;9.124;2023-02-28T07:33:50;6.15;;;3.70;;
25980;SDS011;13772;52.996;9.124;2023-02-28T07:36:16;6.25;;;3.78;;
25980;SDS011;13772;52.996;9.124;2023-02-28T07:38:43;4.57;;;2.97;;
25980;SDS011;13772;52.996;9.124;2023-02-28T07:41:09;7.85;;;3.92;;
25980;SDS011;13772;52.996;9.124;2023-02-28T07:43:34;7.18;;;3.30;;
25980;SDS011;13772;52.996;9.124;2023-02-28T07:46:04;7.00;;;3.88;;
25980;SDS011;13772;52.996;9.124;2023-02-28T07:48:29;6.60;;;3.13;;
25980;SDS011;13772;52.996;9.124;2023-02-28T07:50:55;6.78;;;3.33;;
25980;SDS011;13772;52.996;9.124;2023-02-28T07:53:20;6.53;;;3.70;;
25980;SDS011;13772;52.996;9.124;2023-02-28T07:55:46;7.53;;;3.70;;
25980;SDS011;13772;52.996;9.124;2023-02-28T07:58:11;6.00;;;3.50;;
25980;SDS011;13772;52.996;9.124;2023-02-28T08:00:36;7.32;;;3.97;;
25980;SDS011;13772;52.996;9.124;2023-02-28T08:03:01;7.70;;;3.80;;
25980;SDS011;13772;52.996;9.124;2023-02-28T08:05:26;5.55;;;3.83;;
25980;SDS011;13772;52.996;9.124;2023-02-28T08:07:52;6.32;;;3.85;;
25980;SDS011;13772;52.996;9.124;2023-02-28T08:10:18;6.82;;;3.83;;
25980;SDS011;13772;52.996;9.124;2023-02-28T08:12:43;7.45;;;4.20;;
25980;SDS011;13772;52.996;9.124;2023-02-28T08:15:09;8.60;;;4.15;;
25980;SDS011;13772;52.996;9.124;2023-02-28T08:17:34;7.25;;;4.15;;
25980;SDS011;13772;52.996;9.124;2023-02-28T08:19:59;6.57;;;4.05;;
25980;SDS011;13772;52.996;9.124;2023-02-28T08:22:24;7.40;;;3.78;;
25980;SDS011;13772;52.996;9.124;2023-02-28T08:24:50;6.72;;;3.95;;
25980;SDS011;13772;52.996;9.124;2023-02-28T08:27:15;7.88;;;4.20;;
25980;SDS011;13772;52.996;9.124;2023-02-28T08:29:40;6.68;;;3.72;;
25980;SDS011;13772;52.996;9.124;2023-02-28T08:32:06;10.73;;;4.95;;
25980;SDS011;13772;52.996;9.124;2023-02-28T08:34:31;9.07;;;4.40;;
25980;SDS011;13772;52.996;9.124;2023-02-28T08:36:57;8.25;;;4.55;;
25980;SDS011;13772;52.996;9.124;2023-02-28T08:39:22;9.02;;;5.43;;
25980;SDS011;13772;52.996;9.124;2023-02-28T08:41:47;8.50;;;4.65;;
25980;SDS011;13772;52.996;9.124;2023-02-28T08:44:12;10.93;;;4.70;;
25980;SDS011;13772;52.996;9.124;2023-02-28T08:46:37;9.52;;;4.57;;
25980;SDS011;13772;52.996;9.124;2023-02-28T08:49:03;7.97;;;4.20;;
25980;SDS011;13772;52.996;9.124;2023-02-28T08:51:28;6.72;;;4.60;;
25980;SDS011;13772;52.996;9.124;2023-02-28T08:53:54;7.65;;;4.20;;
25980;SDS011;13772;52.996;9.124;2023-02-28T08:56:20;5.38;;;3.58;;
25980;SDS011;13772;52.996;9.124;2023-02-28T08:58:45;6.78;;;4.20;;
25980;SDS011;13772;52.996;9.124;2023-02-28T09:01:18;6.63;;;4.57;;
25980;SDS011;13772;52.996;9.124;2023-02-28T09:03:44;7.93;;;4.20;;
25980;SDS011;13772;52.996;9.124;2023-02-28T09:06:11;6.45;;;3.25;;
25980;SDS011;13772;52.996;9.124;2023-02-28T09:08:36;6.68;;;3.80;;
25980;SDS011;13772;52.996;9.124;2023-02-28T09:11:02;10.50;;;4.30;;
25980;SDS011;13772;52.996;9.124;2023-02-28T09:13:28;8.50;;;4.32;;
25980;SDS011;13772;52.996;9.124;2023-02-28T09:15:53;5.35;;;3.30;;
25980;SDS011;13772;52.996;9.124;2023-02-28T09:18:19;6.57;;;2.90;;
25980;SDS011;13772;52.996;9.124;2023-02-28T09:20:44;5.03;;;2.80;;
25980;SDS011;13772;52.996;9.124;2023-02-28T09:23:10;6.25;;;3.30;;
25980;SDS011;13772;52.996;9.124;2023-02-28T09:25:37;6.60;;;2.85;;
25980;SDS011;13772;52.996;9.124;2023-02-28T09:28:02;4.22;;;2.00;;
25980;SDS011;13772;52.996;9.124;2023-02-28T09:30:27;6.20;;;2.85;;
25980;SDS011;13772;52.996;9.124;2023-02-28T09:32:53;4.72;;;2.22;;
25980;SDS011;13772;52.996;9.124;2023-02-28T09:35:19;5.22;;;2.40;;
25980;SDS011;13772;52.996;9.124;2023-02-28T09:37:46;4.95;;;2.13;;
25980;SDS011;13772;52.996;9.124;2023-02-28T09:40:11;3.55;;;1.92;;
25980;SDS011;13772;52.996;9.124;2023-02-28T09:42:37;5.28;;;1.98;;
25980;SDS011;13772;52.996;9.124;2023-02-28T09:45:03;3.78;;;1.80;;
25980;SDS011;13772;52.996;9.124;2023-02-28T09:47:36;5.03;;;1.88;;
25980;SDS011;13772;52.996;9.124;2023-02-28T09:50:08;5.00;;;2.00;;
25980;SDS011;13772;52.996;9.124;2023-02-28T09:52:36;2.10;;;0.80;;
25980;SDS011;13772;52.996;9.124;2023-02-28T09:55:26;1.40;;;0.70;;
25980;SDS011;13772;52.996;9.124;2023-02-28T09:57:47;1.00;;;0.65;;
25980;SDS011;13772;52.996;9.124;2023-02-28T10:02:47;2.97;;;1.13;;
25980;SDS011;13772;52.996;9.124;2023-02-28T10:05:14;3.55;;;1.30;;
25980;SDS011;13772;52.996;9.124;2023-02-28T10:07:52;2.22;;;0.90;;
25980;SDS011;13772;52.996;9.124;2023-02-28T10:12:45;3.03;;;1.00;;
25980;SDS011;13772;52.996;9.124;2023-02-28T10:15:15;2.67;;;1.00;;
25980;SDS011;13772;52.996;9.124;2023-02-28T10:17:40;2.25;;;1.17;;
25980;SDS011;13772;52.996;9.124;2023-02-28T10:20:09;3.50;;;1.15;;
25980;SDS011;13772;52.996;9.124;2023-02-28T10:22:52;3.78;;;1.58;;
25980;SDS011;13772;52.996;9.124;2023-02-28T10:25:23;4.40;;;1.35;;
25980;SDS011;13772;52.996;9.124;2023-02-28T10:27:49;3.65;;;1.85;;
25980;SDS011;13772;52.996;9.124;2023-02-28T10:30:15;3.20;;;1.25;;
25980;SDS011;13772;52.996;9.124;2023-02-28T10:32:40;1.65;;;0.90;;
25980;SDS011;13772;52.996;9.124;2023-02-28T10:37:38;4.65;;;1.10;;
25980;SDS011;13772;52.996;9.124;2023-02-28T10:40:04;2.55;;;1.17;;
25980;SDS011;13772;52.996;9.124;2023-02-28T10:42:30;2.95;;;1.10;;
25980;SDS011;13772;52.996;9.124;2023-02-28T10:45:09;3.03;;;1.13;;
25980;SDS011;13772;52.996;9.124;2023-02-28T10:47:35;2.35;;;1.05;;
25980;SDS011;13772;52.996;9.124;2023-02-28T10:50:03;2.75;;;1.25;;
25980;SDS011;13772;52.996;9.124;2023-02-28T10:52:41;2.38;;;1.10;;
25980;SDS011;13772;52.996;9.124;2023-02-28T10:58:01;2.30;;;1.15;;
25980;SDS011;13772;52.996;9.124;2023-02-28T11:00:31;3.28;;;1.25;;
25980;SDS011;13772;52.996;9.124;2023-02-28T11:02:57;3.97;;;1.13;;
25980;SDS011;13772;52.996;9.124;2023-02-28T11:07:51;1.77;;;0.95;;
25980;SDS011;13772;52.996;9.124;2023-02-28T11:10:18;2.03;;;0.70;;
25980;SDS011;13772;52.996;9.124;2023-02-28T11:12:44;2.58;;;0.70;;
25980;SDS011;13772;52.996;9.124;2023-02-28T11:20:23;2.55;;;0.90;;
25980;SDS011;13772;52.996;9.124;2023-02-28T11:22:48;1.23;;;0.40;;
25980;SDS011;13772;52.996;9.124;2023-02-28T11:25:24;1.20;;;0.70;;
25980;SDS011;13772;52.996;9.124;2023-02-28T11:27:51;1.40;;;0.70;;
25980;SDS011;13772;52.996;9.124;2023-02-28T11:30:24;1.80;;;0.80;;
25980;SDS011;13772;52.996;9.124;2023-02-28T11:32:50;1.75;;;0.80;;
25980;SDS011;13772;52.996;9.124;2023-02-28T11:38:11;2.33;;;0.77;;
25980;SDS011;13772;52.996;9.124;2023-02-28T11:43:30;1.92;;;0.90;;
25980;SDS011;13772;52.996;9.124;2023-02-28T11:48:27;3.17;;;1.20;;
25980;SDS011;13772;52.996;9.124;2023-02-28T11:56:31;1.55;;;0.70;;
25980;SDS011;13772;52.996;9.124;2023-02-28T12:04:04;1.63;;;0.60;;
25980;SDS011;13772;52.996;9.124;2023-02-28T12:06:33;2.67;;;1.00;;
25980;SDS011;13772;52.996;9.124;2023-02-28T12:11:43;2.75;;;0.98;;
25980;SDS011;13772;52.996;9.124;2023-02-28T12:16:59;1.75;;;0.80;;
25980;SDS011;13772;52.996;9.124;2023-02-28T12:27:24;3.30;;;1.20;;
25980;SDS011;13772;52.996;9.124;2023-02-28T12:29:53;2.05;;;0.77;;
25980;SDS011;13772;52.996;9.124;2023-02-28T12:34:55;1.52;;;0.82;;
25980;SDS011;13772;52.996;9.124;2023-02-28T12:37:25;1.75;;;0.70;;
25980;SDS011;13772;52.996;9.124;2023-02-28T12:39:54;4.63;;;0.80;;
25980;SDS011;13772;52.996;9.124;2023-02-28T12:42:28;2.22;;;0.75;;
25980;SDS011;13772;52.996;9.124;2023-02-28T12:44:59;1.45;;;0.73;;
25980;SDS011;13772;52.996;9.124;2023-02-28T12:47:26;2.15;;;0.65;;
25980;SDS011;13772;52.996;9.124;2023-02-28T12:49:52;2.90;;;0.60;;
25980;SDS011;13772;52.996;9.124;2023-02-28T12:52:31;1.38;;;0.80;;
25980;SDS011;13772;52.996;9.124;2023-02-28T12:55:05;3.13;;;1.02;;
25980;SDS011;13772;52.996;9.124;2023-02-28T12:59:58;1.73;;;0.70;;
25980;SDS011;13772;52.996;9.124;2023-02-28T13:02:44;2.67;;;0.50;;
25980;SDS011;13772;52.996;9.124;2023-02-28T13:07:49;2.95;;;0.70;;
25980;SDS011;13772;52.996;9.124;2023-02-28T13:10:19;2.13;;;0.60;;
25980;SDS011;13772;52.996;9.124;2023-02-28T13:12:54;1.20;;;0.60;;
25980;SDS011;13772;52.996;9.124;2023-02-28T13:15:24;1.75;;;0.70;;
25980;SDS011;13772;52.996;9.124;2023-02-28T13:17:51;1.17;;;0.60;;
25980;SDS011;13772;52.996;9.124;2023-02-28T13:20:18;2.13;;;0.88;;
25980;SDS011;13772;52.996;9.124;2023-02-28T13:22:45;1.83;;;0.80;;
25980;SDS011;13772;52.996;9.124;2023-02-28T13:28:09;2.80;;;0.70;;
25980;SDS011;13772;52.996;9.124;2023-02-28T13:36:00;1.85;;;0.80;;
25980;SDS011;13772;52.996;9.124;2023-02-28T13:38:32;2.42;;;0.95;;
25980;SDS011;13772;52.996;9.124;2023-02-28T13:41:21;1.90;;;0.93;;
25980;SDS011;13772;52.996;9.124;2023-02-28T13:46:28;0.95;;;0.80;;
25980;SDS011;13772;52.996;9.124;2023-02-28T13:48:53;2.25;;;0.95;;
25980;SDS011;13772;52.996;9.124;2023-02-28T13:51:33;1.90;;;0.77;;
25980;SDS011;13772;52.996;9.124;2023-02-28T13:54:06;1.20;;;0.60;;
25980;SDS011;13772;52.996;9.124;2023-02-28T13:56:37;1.63;;;0.70;;
25980;SDS011;13772;52.996;9.124;2023-02-28T13:59:12;2.55;;;1.02;;
25980;SDS011;13772;52.996;9.124;2023-02-28T14:01:44;1.35;;;0.80;;
25980;SDS011;13772;52.996;9.124;2023-02-28T14:04:25;1.33;;;0.85;;
25980;SDS011;13772;52.996;9.124;2023-02-28T14:06:56;1.60;;;0.88;;
25980;SDS011;13772;52.996;9.124;2023-02-28T14:09:35;1.40;;;0.70;;
25980;SDS011;13772;52.996;9.124;2023-02-28T14:17:12;1.97;;;0.90;;
25980;SDS011;13772;52.996;9.124;2023-02-28T14:19:39;1.95;;;0.80;;
25980;SDS011;13772;52.996;9.124;2023-02-28T14:22:09;1.83;;;0.88;;
25980;SDS011;13772;52.996;9.124;2023-02-28T14:24:49;1.95;;;0.90;;
25980;SDS011;13772;52.996;9.124;2023-02-28T14:32:32;1.55;;;1.00;;
25980;SDS011;13772;52.996;9.124;2023-02-28T14:35:02;1.80;;;1.00;;
25980;SDS011;13772;52.996;9.124;2023-02-28T14:37:38;1.98;;;1.10;;
25980;SDS011;13772;52.996;9.124;2023-02-28T14:40:11;2.95;;;1.00;;
25980;SDS011;13772;52.996;9.124;2023-02-28T14:42:37;1.85;;;1.00;;
25980;SDS011;13772;52.996;9.124;2023-02-28T14:45:21;2.47;;;1.00;;
25980;SDS011;13772;52.996;9.124;2023-02-28T14:47:47;1.80;;;1.10;;
25980;SDS011;13772;52.996;9.124;2023-02-28T14:50:19;3.33;;;0.98;;
25980;SDS011;13772;52.996;9.124;2023-02-28T14:52:45;1.92;;;0.93;;
25980;SDS011;13772;52.996;9.124;2023-02-28T14:55:12;1.65;;;0.90;;
25980;SDS011;13772;52.996;9.124;2023-02-28T14:57:40;2.45;;;1.10;;
25980;SDS011;13772;52.996;9.124;2023-02-28T15:02:35;2.50;;;1.05;;
25980;SDS011;13772;52.996;9.124;2023-02-28T15:05:02;2.17;;;1.20;;
25980;SDS011;13772;52.996;9.124;2023-02-28T15:07:35;3.10;;;1.40;;
25980;SDS011;13772;52.996;9.124;2023-02-28T15:12:54;3.50;;;1.60;;
25980;SDS011;13772;52.996;9.124;2023-02-28T15:15:21;2.70;;;1.27;;
25980;SDS011;13772;52.996;9.124;2023-02-28T15:17:49;2.28;;;1.00;;
25980;SDS011;13772;52.996;9.124;2023-02-28T15:20:15;2.97;;;1.20;;
25980;SDS011;13772;52.996;9.124;2023-02-28T15:22:41;1.98;;;1.25;;
25980;SDS011;13772;52.996;9.124;2023-02-28T15:25:06;3.67;;;1.15;;
25980;SDS011;13772;52.996;9.124;2023-02-28T15:27:33;3.25;;;1.48;;
25980;SDS011;13772;52.996;9.124;2023-02-28T15:30:00;3.08;;;1.40;;
25980;SDS011;13772;52.996;9.124;2023-02-28T15:32:29;2.53;;;1.27;;
25980;SDS011;13772;52.996;9.124;2023-02-28T15:34:55;2.78;;;1.33;;
25980;SDS011;13772;52.996;9.124;2023-02-28T15:37:33;3.35;;;1.58;;
25980;SDS011;13772;52.996;9.124;2023-02-28T15:42:30;3.90;;;1.57;;
25980;SDS011;13772;52.996;9.124;2023-02-28T15:44:56;2.85;;;1.25;;
25980;SDS011;13772;52.996;9.124;2023-02-28T15:47:23;2.05;;;1.15;;
25980;SDS011;13772;52.996;9.124;2023-02-28T15:49:49;5.43;;;1.38;;
25980;SDS011;13772;52.996;9.124;2023-02-28T15:52:17;2.33;;;1.15;;
25980;SDS011;13772;52.996;9.124;2023-02-28T15:54:43;4.10;;;1.30;;
25980;SDS011;13772;52.996;9.124;2023-02-28T15:57:12;2.95;;;1.33;;
25980;SDS011;13772;52.996;9.124;2023-02-28T15:59:38;2.88;;;1.40;;
25980;SDS011;13772;52.996;9.124;2023-02-28T16:04:34;2.45;;;1.25;;
25980;SDS011;13772;52.996;9.124;2023-02-28T16:07:04;2.55;;;1.20;;
25980;SDS011;13772;52.996;9.124;2023-02-28T16:11:55;3.55;;;1.58;;
25980;SDS011;13772;52.996;9.124;2023-02-28T16:14:23;3.30;;;1.50;;
25980;SDS011;13772;52.996;9.124;2023-02-28T16:16:49;3.88;;;1.75;;
25980;SDS011;13772;52.996;9.124;2023-02-28T16:19:15;3.65;;;1.60;;
25980;SDS011;13772;52.996;9.124;2023-02-28T16:21:40;3.38;;;1.55;;
25980;SDS011;13772;52.996;9.124;2023-02-28T16:24:06;6.10;;;1.98;;
25980;SDS011;13772;52.996;9.124;2023-02-28T16:26:31;6.25;;;3.03;;
25980;SDS011;13772;52.996;9.124;2023-02-28T16:28:59;6.32;;;3.15;;
25980;SDS011;13772;52.996;9.124;2023-02-28T16:31:24;5.22;;;2.33;;
25980;SDS011;13772;52.996;9.124;2023-02-28T16:33:49;5.70;;;2.13;;
25980;SDS011;13772;52.996;9.124;2023-02-28T16:36:19;3.60;;;1.80;;
25980;SDS011;13772;52.996;9.124;2023-02-28T16:38:44;5.50;;;1.98;;
25980;SDS011;13772;52.996;9.124;2023-02-28T16:41:12;4.43;;;1.77;;
25980;SDS011;13772;52.996;9.124;2023-02-28T16:43:41;4.43;;;2.00;;
25980;SDS011;13772;52.996;9.124;2023-02-28T16:46:08;4.72;;;2.60;;
25980;SDS011;13772;52.996;9.124;2023-02-28T16:48:34;4.68;;;2.13;;
25980;SDS011;13772;52.996;9.124;2023-02-28T16:51:00;4.65;;;2.25;;
25980;SDS011;13772;52.996;9.124;2023-02-28T16:53:25;4.47;;;1.90;;
25980;SDS011;13772;52.996;9.124;2023-02-28T16:55:50;4.95;;;1.90;;
25980;SDS011;13772;52.996;9.124;2023-02-28T16:58:16;3.80;;;2.05;;
25980;SDS011;13772;52.996;9.124;2023-02-28T17:00:42;7.88;;;2.08;;
25980;SDS011;13772;52.996;9.124;2023-02-28T17:03:29;3.65;;;1.90;;
25980;SDS011;13772;52.996;9.124;2023-02-28T17:05:54;3.33;;;1.80;;
25980;SDS011;13772;52.996;9.124;2023-02-28T17:08:19;5.68;;;1.80;;
25980;SDS011;13772;52.996;9.124;2023-02-28T17:10:45;4.32;;;2.20;;
25980;SDS011;13772;52.996;9.124;2023-02-28T17:13:10;5.10;;;2.58;;
25980;SDS011;13772;52.996;9.124;2023-02-28T17:15:35;5.60;;;3.00;;
25980;SDS011;13772;52.996;9.124;2023-02-28T17:18:01;7.10;;;3.22;;
25980;SDS011;13772;52.996;9.124;2023-02-28T17:20:26;9.05;;;3.90;;
25980;SDS011;13772;52.996;9.124;2023-02-28T17:22:52;9.88;;;4.15;;
25980;SDS011;13772;52.996;9.124;2023-02-28T17:25:18;9.02;;;3.90;;
25980;SDS011;13772;52.996;9.124;2023-02-28T17:27:44;10.95;;;5.00;;
25980;SDS011;13772;52.996;9.124;2023-02-28T17:30:13;9.73;;;5.05;;
25980;SDS011;13772;52.996;9.124;2023-02-28T17:32:39;11.15;;;4.93;;
25980;SDS011;13772;52.996;9.124;2023-02-28T17:35:04;11.00;;;5.32;;
25980;SDS011;13772;52.996;9.124;2023-02-28T17:37:30;10.05;;;5.43;;
25980;SDS011;13772;52.996;9.124;2023-02-28T17:39:55;9.95;;;5.57;;
25980;SDS011;13772;52.996;9.124;2023-02-28T17:42:20;10.60;;;5.45;;
25980;SDS011;13772;52.996;9.124;2023-02-28T17:44:45;11.35;;;5.05;;
25980;SDS011;13772;52.996;9.124;2023-02-28T17:47:11;11.63;;;5.85;;
25980;SDS011;13772;52.996;9.124;2023-02-28T17:49:36;10.77;;;5.88;;
25980;SDS011;13772;52.996;9.124;2023-02-28T17:52:02;12.82;;;6.15;;
25980;SDS011;13772;52.996;9.124;2023-02-28T17:54:27;15.18;;;6.75;;
25980;SDS011;13772;52.996;9.124;2023-02-28T17:56:52;11.35;;;6.90;;
25980;SDS011;13772;52.996;9.124;2023-02-28T17:59:17;11.48;;;6.20;;
25980;SDS011;13772;52.996;9.124;2023-02-28T18:01:43;10.15;;;5.75;;
25980;SDS011;13772;52.996;9.124;2023-02-28T18:04:08;12.10;;;5.68;;
25980;SDS011;13772;52.996;9.124;2023-02-28T18:06:34;10.20;;;6.18;;
25980;SDS011;13772;52.996;9.124;2023-02-28T18:09:00;10.57;;;6.43;;
25980;SDS011;13772;52.996;9.124;2023-02-28T18:11:25;11.38;;;6.35;;
25980;SDS011;13772;52.996;9.124;2023-02-28T18:14:06;10.25;;;6.88;;
25980;SDS011;13772;52.996;9.124;2023-02-28T18:16:31;10.80;;;7.15;;
25980;SDS011;13772;52.996;9.124;2023-02-28T18:18:56;12.95;;;7.97;;
25980;SDS011;13772;52.996;9.124;2023-02-28T18:21:21;11.45;;;8.30;;
25980;SDS011;13772;52.996;9.124;2023-02-28T18:23:46;30.85;;;18.95;;
25980;SDS011;13772;52.996;9.124;2023-02-28T18:26:15;39.97;;;23.88;;
25980;SDS011;13772;52.996;9.124;2023-02-28T18:28:41;32.97;;;18.70;;
25980;SDS011;13772;52.996;9.124;2023-02-28T18:31:08;27.85;;;15.93;;
25980;SDS011;13772;52.996;9.124;2023-02-28T18:33:34;21.73;;;12.88;;
25980;SDS011;13772;52.996;9.124;2023-02-28T18:35:59;20.25;;;11.63;;
25980;SDS011;13772;52.996;9.124;2023-02-28T18:38:25;19.98;;;11.57;;
25980;SDS011;13772;52.996;9.124;2023-02-28T18:40:51;19.80;;;10.98;;
25980;SDS011;13772;52.996;9.124;2023-02-28T18:43:17;16.20;;;10.50;;
25980;SDS011;13772;52.996;9.124;2023-02-28T18:45:43;19.88;;;11.05;;
25980;SDS011;13772;52.996;9.124;2023-02-28T18:48:08;17.80;;;10.32;;
25980;SDS011;13772;52.996;9.124;2023-02-28T18:50:35;18.77;;;11.57;;
25980;SDS011;13772;52.996;9.124;2023-02-28T18:53:01;18.05;;;11.52;;
25980;SDS011;13772;52.996;9.124;2023-02-28T18:55:27;17.75;;;10.43;;
25980;SDS011;13772;52.996;9.124;2023-02-28T18:57:52;17.38;;;9.52;;
25980;SDS011;13772;52.996;9.124;2023-02-28T19:00:17;16.77;;;9.02;;
25980;SDS011;13772;52.996;9.124;2023-02-28T19:02:46;12.90;;;8.60;;
25980;SDS011;13772;52.996;9.124;2023-02-28T19:05:11;15.88;;;8.60;;
25980;SDS011;13772;52.996;9.124;2023-02-28T19:07:37;15.57;;;9.50;;
25980;SDS011;13772;52.996;9.124;2023-02-28T19:10:02;15.63;;;9.88;;
25980;SDS011;13772;52.996;9.124;2023-02-28T19:12:28;18.17;;;10.82;;
25980;SDS011;13772;52.996;9.124;2023-02-28T19:14:53;17.58;;;11.15;;
25980;SDS011;13772;52.996;9.124;2023-02-28T19:17:18;16.77;;;11.45;;
25980;SDS011;13772;52.996;9.124;2023-02-28T19:19:44;20.45;;;12.57;;
25980;SDS011;13772;52.996;9.124;2023-02-28T19:22:09;18.80;;;13.75;;
25980;SDS011;13772;52.996;9.124;2023-02-28T19:24:34;15.52;;;11.55;;
25980;SDS011;13772;52.996;9.124;2023-02-28T19:26:59;14.57;;;10.55;;
25980;SDS011;13772;52.996;9.124;2023-02-28T19:29:25;13.98;;;8.48;;
25980;SDS011;13772;52.996;9.124;2023-02-28T19:31:50;13.57;;;8.45;;
25980;SDS011;13772;52.996;9.124;2023-02-28T19:34:17;13.60;;;7.28;;
25980;SDS011;13772;52.996;9.124;2023-02-28T19:36:42;14.38;;;7.40;;
25980;SDS011;13772;52.996;9.124;2023-02-28T19:39:07;14.32;;;6.80;;
25980;SDS011;13772;52.996;9.124;2023-02-28T19:41:32;14.73;;;6.47;;
25980;SDS011;13772;52.996;9.124;2023-02-28T19:43:57;9.32;;;5.68;;
25980;SDS011;13772;52.996;9.124;2023-02-28T19:46:23;14.15;;;8.45;;
25980;SDS011;13772;52.996;9.124;2023-02-28T19:48:51;17.42;;;9.52;;
25980;SDS011;13772;52.996;9.124;2023-02-28T19:51:16;17.75;;;9.35;;
25980;SDS011;13772;52.996;9.124;2023-02-28T19:53:41;22.58;;;11.18;;
25980;SDS011;13772;52.996;9.124;2023-02-28T19:56:07;22.25;;;11.57;;
25980;SDS011;13772;52.996;9.124;2023-02-28T19:58:33;20.52;;;11.75;;
25980;SDS011;13772;52.996;9.124;2023-02-28T20:01:05;19.35;;;10.13;;
25980;SDS011;13772;52.996;9.124;2023-02-28T20:03:30;17.67;;;9.53;;
25980;SDS011;13772;52.996;9.124;2023-02-28T20:06:00;15.70;;;8.25;;
25980;SDS011;13772;52.996;9.124;2023-02-28T20:08:25;18.80;;;8.85;;
25980;SDS011;13772;52.996;9.124;2023-02-28T20:10:50;15.00;;;8.70;;
25980;SDS011;13772;52.996;9.124;2023-02-28T20:13:15;19.95;;;8.98;;
25980;SDS011;13772;52.996;9.124;2023-02-28T20:15:40;15.03;;;8.00;;
25980;SDS011;13772;52.996;9.124;2023-02-28T20:18:06;12.68;;;7.38;;
25980;SDS011;13772;52.996;9.124;2023-02-28T20:20:31;12.60;;;6.63;;
25980;SDS011;13772;52.996;9.124;2023-02-28T20:23:00;10.48;;;5.57;;
25980;SDS011;13772;52.996;9.124;2023-02-28T20:25:25;10.23;;;5.27;;
25980;SDS011;13772;52.996;9.124;2023-02-28T20:27:51;11.83;;;5.13;;
25980;SDS011;13772;52.996;9.124;2023-02-28T20:30:17;11.47;;;5.13;;
25980;SDS011;13772;52.996;9.124;2023-02-28T20:32:45;11.73;;;5.55;;
25980;SDS011;13772;52.996;9.124;2023-02-28T20:35:11;9.07;;;5.03;;
25980;SDS011;13772;52.996;9.124;2023-02-28T20:37:36;12.17;;;5.93;;
25980;SDS011;13772;52.996;9.124;2023-02-28T20:40:02;14.50;;;6.27;;
25980;SDS011;13772;52.996;9.124;2023-02-28T20:42:28;13.57;;;6.93;;
25980;SDS011;13772;52.996;9.124;2023-02-28T20:44:53;20.10;;;10.10;;
25980;SDS011;13772;52.996;9.124;2023-02-28T20:47:18;18.80;;;8.87;;
25980;SDS011;13772;52.996;9.124;2023-02-28T20:49:44;15.83;;;7.70;;
25980;SDS011;13772;52.996;9.124;2023-02-28T20:52:09;12.63;;;6.75;;
25980;SDS011;13772;52.996;9.124;2023-02-28T20:54:34;10.07;;;5.22;;
25980;SDS011;13772;52.996;9.124;2023-02-28T20:57:00;10.35;;;5.15;;
25980;SDS011;13772;52.996;9.124;2023-02-28T20:59:25;10.83;;;5.63;;
25980;SDS011;13772;52.996;9.124;2023-02-28T21:01:51;7.90;;;4.30;;
25980;SDS011;13772;52.996;9.124;2023-02-28T21:04:16;9.23;;;4.37;;
25980;SDS011;13772;52.996;9.124;2023-02-28T21:06:42;7.23;;;4.07;;
25980;SDS011;13772;52.996;9.124;2023-02-28T21:09:08;9.50;;;5.10;;
25980;SDS011;13772;52.996;9.124;2023-02-28T21:11:35;11.90;;;5.63;;
25980;SDS011;13772;52.996;9.124;2023-02-28T21:14:01;15.17;;;7.77;;
25980;SDS011;13772;52.996;9.124;2023-02-28T21:16:27;20.03;;;10.30;;
25980;SDS011;13772;52.996;9.124;2023-02-28T21:18:53;26.13;;;11.80;;
25980;SDS011;13772;52.996;9.124;2023-02-28T21:21:20;24.17;;;11.63;;
25980;SDS011;13772;52.996;9.124;2023-02-28T21:23:46;17.57;;;10.07;;
25980;SDS011;13772;52.996;9.124;2023-02-28T21:26:15;21.23;;;10.30;;
25980;SDS011;13772;52.996;9.124;2023-02-28T21:28:41;33.23;;;15.57;;
25980;SDS011;13772;52.996;9.124;2023-02-28T21:31:08;45.33;;;22.20;;
25980;SDS011;13772;52.996;9.124;2023-02-28T21:33:34;42.03;;;20.60;;
25980;SDS011;13772;52.996;9.124;2023-02-28T21:36:03;31.40;;;15.90;;
25980;SDS011;13772;52.996;9.124;2023-02-28T21:38:28;22.33;;;13.25;;
25980;SDS011;13772;52.996;9.124;2023-02-28T21:40:54;21.03;;;12.07;;
25980;SDS011;13772;52.996;9.124;2023-02-28T21:43:19;19.40;;;12.07;;
25980;SDS011;13772;52.996;9.124;2023-02-28T21:45:44;24.07;;;11.67;;
25980;SDS011;13772;52.996;9.124;2023-02-28T21:48:09;23.47;;;12.60;;
25980;SDS011;13772;52.996;9.124;2023-02-28T21:50:35;25.20;;;12.03;;
25980;SDS011;13772;52.996;9.124;2023-02-28T21:53:00;26.73;;;14.07;;
25980;SDS011;13772;52.996;9.124;2023-02-28T21:55:25;24.00;;;12.88;;
25980;SDS011;13772;52.996;9.124;2023-02-28T21:57:50;22.00;;;12.20;;
25980;SDS011;13772;52.996;9.124;2023-02-28T22:00:16;20.03;;;9.80;;
25980;SDS011;13772;52.996;9.124;2023-02-28T22:02:41;15.40;;;8.37;;
25980;SDS011;13772;52.996;9.124;2023-02-28T22:05:06;14.03;;;8.20;;
25980;SDS011;13772;52.996;9.124;2023-02-28T22:07:31;13.60;;;7.13;;
25980;SDS011;13772;52.996;9.124;2023-02-28T22:09:57;13.87;;;6.87;;
25980;SDS011;13772;52.996;9.124;2023-02-28T22:12:22;16.43;;;7.60;;
25980;SDS011;13772;52.996;9.124;2023-02-28T22:14:47;18.13;;;8.23;;
25980;SDS011;13772;52.996;9.124;2023-02-28T22:17:12;19.57;;;9.30;;
25980;SDS011;13772;52.996;9.124;2023-02-28T22:19:38;22.87;;;9.83;;
25980;SDS011;13772;52.996;9.124;2023-02-28T22:22:03;19.43;;;9.67;;
25980;SDS011;13772;52.996;9.124;2023-02-28T22:24:28;26.57;;;12.30;;
25980;SDS011;13772;52.996;9.124;2023-02-28T22:26:53;26.17;;;12.67;;
25980;SDS011;13772;52.996;9.124;2023-02-28T22:29:18;27.20;;;12.60;;
25980;SDS011;13772;52.996;9.124;2023-02-28T22:31:44;25.60;;;11.57;;
25980;SDS011;13772;52.996;9.124;2023-02-28T22:34:10;23.63;;;11.23;;
25980;SDS011;13772;52.996;9.124;2023-02-28T22:36:35;26.33;;;12.93;;
25980;SDS011;13772;52.996;9.124;2023-02-28T22:39:00;44.67;;;18.87;;
25980;SDS011;13772;52.996;9.124;2023-02-28T22:41:26;43.13;;;18.97;;
25980;SDS011;13772;52.996;9.124;2023-02-28T22:43:52;40.10;;;17.57;;
25980;SDS011;13772;52.996;9.124;2023-02-28T22:46:18;26.77;;;13.03;;
25980;SDS011;13772;52.996;9.124;2023-02-28T22:48:43;18.97;;;10.53;;
25980;SDS011;13772;52.996;9.124;2023-02-28T22:51:13;15.30;;;8.33;;
25980;SDS011;13772;52.996;9.124;2023-02-28T22:53:41;12.97;;;7.17;;
25980;SDS011;13772;52.996;9.124;2023-02-28T22:56:08;19.63;;;8.07;;
